Time;durP1;ratioP1;P1;durP2;ratioP2;P2;SDS_P1;SDS_P2;PMS_P1;PMS_P2;Temp;Humidity;BMP_temperature;BMP_pressure;BME280_temperature;BME280_humidity;BME280_pressure;Samples;Min_cycle;Max_cycle;Signal;HPM_P1;HPM_P2
2022/11/15 00:00:50;;;;;;;21.60;13.05;;;8.10;99.90;;;;;;4990982;28;20038;-87
2022/11/15 00:03:18;;;;;;;22.48;12.57;;;8.40;99.90;;;;;;4943998;28;20042;-86
2022/11/15 00:05:44;;;;;;;22.95;12.63;;;8.00;99.90;;;;;;4967125;28;20045;-86
2022/11/15 00:08:10;;;;;;;29.48;13.52;;;8.20;99.90;;;;;;4967472;28;20042;-86
2022/11/15 00:10:36;;;;;;;24.38;12.95;;;8.20;99.90;;;;;;4970095;28;20474;-86
2022/11/15 00:13:06;;;;;;;23.95;13.18;;;7.90;99.90;;;;;;4971827;28;20054;-86
2022/11/15 00:15:35;;;;;;;24.15;13.15;;;7.80;99.90;;;;;;4988971;28;20081;-86
2022/11/15 00:18:02;;;;;;;24.00;12.77;;;7.80;99.90;;;;;;4983470;28;20397;-86
2022/11/15 00:20:27;;;;;;;22.15;12.15;;;8.00;99.90;;;;;;4962596;28;20047;-87
2022/11/15 00:22:53;;;;;;;24.13;13.53;;;7.80;99.90;;;;;;4957321;28;20042;-87
2022/11/15 00:25:19;;;;;;;25.97;13.17;;;8.40;99.90;;;;;;4942493;28;20042;-87
2022/11/15 00:27:45;;;;;;;25.10;14.07;;;7.50;99.90;;;;;;4942167;28;20316;-87
2022/11/15 00:30:11;;;;;;;24.73;12.52;;;7.90;99.90;;;;;;4967402;28;20518;-86
2022/11/15 00:32:37;;;;;;;23.05;13.20;;;7.50;99.90;;;;;;4946499;28;20059;-87
2022/11/15 00:35:03;;;;;;;22.63;12.48;;;7.50;99.90;;;;;;4974088;28;20050;-87
2022/11/15 00:37:28;;;;;;;23.92;13.18;;;7.50;99.90;;;;;;4974764;28;20039;-87
2022/11/15 00:39:54;;;;;;;23.40;12.60;;;7.60;99.90;;;;;;4962500;28;20530;-86
2022/11/15 00:42:20;;;;;;;26.43;13.50;;;7.70;99.90;;;;;;4974437;28;20278;-87
2022/11/15 00:44:45;;;;;;;24.70;13.27;;;8.30;99.90;;;;;;4960097;28;20035;-86
2022/11/15 00:47:11;;;;;;;24.93;12.93;;;7.60;99.90;;;;;;4941760;28;20422;-86
2022/11/15 00:49:37;;;;;;;22.93;12.53;;;8.40;99.90;;;;;;4974024;28;20286;-87
2022/11/15 00:52:02;;;;;;;23.67;13.23;;;7.60;99.90;;;;;;4978248;28;20039;-87
2022/11/15 00:54:28;;;;;;;24.27;13.25;;;7.70;99.90;;;;;;4964676;28;20809;-86
2022/11/15 00:56:54;;;;;;;25.42;12.73;;;8.30;99.90;;;;;;4953474;28;20046;-87
2022/11/15 00:59:20;;;;;;;24.87;13.47;;;8.00;99.90;;;;;;4962649;28;20042;-87
2022/11/15 01:01:45;;;;;;;26.63;13.30;;;7.70;99.90;;;;;;4964829;28;20034;-86
2022/11/15 01:04:11;;;;;;;23.03;13.03;;;7.70;99.90;;;;;;4970275;28;20301;-86
2022/11/15 01:06:37;;;;;;;24.10;12.88;;;7.70;99.90;;;;;;4962350;28;20371;-86
2022/11/15 01:09:03;;;;;;;20.97;12.70;;;7.90;99.90;;;;;;4961832;28;20041;-86
2022/11/15 01:11:28;;;;;;;20.63;11.85;;;7.70;99.90;;;;;;4977926;28;20129;-87
2022/11/15 01:13:55;;;;;;;19.65;10.23;;;7.80;99.90;;;;;;4977310;28;20120;-86
2022/11/15 01:16:21;;;;;;;20.30;11.38;;;7.80;99.90;;;;;;4970575;28;20065;-86
2022/11/15 01:18:46;;;;;;;23.77;12.30;;;7.90;99.90;;;;;;4993437;28;20043;-86
2022/11/15 01:21:15;;;;;;;21.53;11.83;;;7.80;99.90;;;;;;4972586;28;20069;-86
2022/11/15 01:23:41;;;;;;;20.48;11.93;;;8.10;99.90;;;;;;4981818;28;20045;-86
2022/11/15 01:26:10;;;;;;;21.13;11.93;;;7.70;99.90;;;;;;4965311;28;20394;-86
2022/11/15 01:28:37;;;;;;;19.80;11.68;;;7.70;99.90;;;;;;4984309;28;20038;-86
2022/11/15 01:31:06;;;;;;;22.27;12.38;;;7.70;99.90;;;;;;4988176;28;20117;-86
2022/11/15 01:33:36;;;;;;;26.15;13.02;;;7.80;99.90;;;;;;4977314;28;20060;-86
2022/11/15 01:36:07;;;;;;;26.13;12.35;;;7.70;99.90;;;;;;4981371;28;20121;-86
2022/11/15 01:38:34;;;;;;;26.52;14.75;;;7.80;99.90;;;;;;4968193;28;20039;-85
2022/11/15 01:40:59;;;;;;;;;;;7.80;99.90;;;;;;4977369;28;20041;-86
2022/11/15 01:43:36;;;;;;;21.63;12.88;;;7.70;99.90;;;;;;4986404;28;19922;-86
2022/11/15 01:46:20;;;;;;;25.38;13.60;;;7.70;99.90;;;;;;4986002;28;20458;-87
2022/11/15 01:48:46;;;;;;;24.92;13.27;;;7.70;99.90;;;;;;4973060;28;20495;-86
2022/11/15 01:51:15;;;;;;;26.17;13.33;;;7.70;99.90;;;;;;4945068;28;20050;-87
2022/11/15 01:53:45;;;;;;;23.40;13.07;;;7.70;99.90;;;;;;4972090;28;20129;-86
2022/11/15 01:56:19;;;;;;;21.85;10.80;;;7.70;99.90;;;;;;4965192;28;20038;-86
2022/11/15 01:58:46;;;;;;;26.60;13.63;;;7.90;99.90;;;;;;4965796;28;20065;-86
2022/11/15 02:01:13;;;;;;;24.30;12.90;;;7.70;99.90;;;;;;4992841;28;20097;-86
2022/11/15 02:04:20;;;;;;;25.92;14.40;;;7.70;99.90;;;;;;4969885;28;20045;-87
2022/11/15 02:06:48;;;;;;;24.42;12.48;;;7.70;99.90;;;;;;4947352;28;20042;-87
2022/11/15 02:09:14;;;;;;;26.58;14.13;;;7.90;99.90;;;;;;4993367;28;20554;-87
2022/11/15 02:11:40;;;;;;;23.73;11.63;;;8.10;99.90;;;;;;4972037;28;20347;-87
2022/11/15 02:14:06;;;;;;;;;;;7.70;99.90;;;;;;4951145;28;20051;-87
2022/11/15 02:16:54;;;;;;;23.65;11.75;;;7.70;99.90;;;;;;4966344;28;19924;-86
2022/11/15 02:19:31;;;;;;;26.33;11.73;;;7.70;99.90;;;;;;4974075;28;20081;-86
2022/11/15 02:22:36;;;;;;;24.15;12.20;;;7.70;99.90;;;;;;4976710;28;20112;-87
2022/11/15 02:25:31;;;;;;;26.83;12.60;;;7.70;99.90;;;;;;4971100;28;20563;-86
2022/11/15 02:28:21;;;;;;;24.80;12.13;;;7.70;99.90;;;;;;4968944;28;20042;-86
2022/11/15 02:31:10;;;;;;;24.25;11.82;;;7.60;99.90;;;;;;4976510;28;20042;-86
2022/11/15 02:34:02;;;;;;;27.13;12.75;;;7.60;99.90;;;;;;4969543;28;20057;-86
2022/11/15 02:36:48;;;;;;;24.50;12.13;;;7.60;99.90;;;;;;5008363;28;20043;-86
2022/11/15 02:39:28;;;;;;;28.03;13.33;;;7.60;99.90;;;;;;4973466;28;20046;-86
2022/11/15 02:42:03;;;;;;;28.20;13.55;;;7.70;99.90;;;;;;4976156;28;20390;-87
2022/11/15 02:44:42;;;;;;;28.67;14.40;;;7.70;99.90;;;;;;4971406;28;20042;-86
2022/11/15 02:47:13;;;;;;;28.20;13.70;;;7.60;99.90;;;;;;4968987;28;20402;-86
2022/11/15 02:49:53;;;;;;;24.15;12.45;;;7.60;99.90;;;;;;4973787;28;20030;-87
2022/11/15 02:52:25;;;;;;;29.48;13.90;;;7.60;99.90;;;;;;4984992;28;20177;-86
2022/11/15 02:54:56;;;;;;;30.65;14.07;;;7.70;99.90;;;;;;4985789;28;20548;-87
2022/11/15 02:58:04;;;;;;;26.80;13.55;;;7.50;99.90;;;;;;4966430;28;20043;-86
2022/11/15 03:00:34;;;;;;;;;;;7.50;99.90;;;;;;4917769;29;20048;-86
2022/11/15 03:03:30;;;;;;;31.70;13.73;;;7.60;99.90;;;;;;4992860;28;20393;-86
2022/11/15 03:06:12;;;;;;;26.75;13.77;;;7.60;99.90;;;;;;4984172;28;20035;-86
2022/11/15 03:08:51;;;;;;;31.35;15.18;;;7.50;99.90;;;;;;4976100;28;20038;-87
2022/11/15 03:11:22;;;;;;;28.30;12.73;;;7.50;99.90;;;;;;4986904;28;20048;-86
2022/11/15 03:13:58;;;;;;;31.00;14.18;;;7.60;99.90;;;;;;4962490;28;20554;-86
2022/11/15 03:17:01;;;;;;;28.17;13.20;;;7.60;99.90;;;;;;4968722;28;20137;-87
2022/11/15 03:19:39;;;;;;;29.80;13.95;;;7.60;99.90;;;;;;4975558;28;20085;-86
2022/11/15 03:22:09;;;;;;;30.27;14.07;;;7.70;99.90;;;;;;4968400;28;20042;-87
2022/11/15 03:24:37;;;;;;;34.50;13.82;;;7.60;99.90;;;;;;4963573;28;20038;-86
2022/11/15 03:27:06;;;;;;;32.00;14.48;;;7.60;99.90;;;;;;4946866;28;20042;-86
2022/11/15 03:29:36;;;;;;;31.58;13.13;;;7.60;99.90;;;;;;4970659;28;20486;-86
2022/11/15 03:32:13;;;;;;;30.85;14.73;;;7.70;99.90;;;;;;4964929;28;20074;-86
2022/11/15 03:34:41;;;;;;;31.08;13.73;;;7.70;99.90;;;;;;4973597;28;20042;-86
2022/11/15 03:37:09;;;;;;;32.50;14.15;;;7.70;99.90;;;;;;4983656;28;20125;-87
2022/11/15 03:39:35;;;;;;;29.75;14.48;;;7.70;99.90;;;;;;4984395;28;20515;-86
2022/11/15 03:42:13;;;;;;;29.97;13.73;;;7.70;99.90;;;;;;4970176;28;20042;-88
2022/11/15 03:45:02;;;;;;;34.45;14.75;;;7.80;99.90;;;;;;4977298;28;20038;-86
2022/11/15 03:47:31;;;;;;;34.40;14.48;;;7.80;99.90;;;;;;4965854;28;20038;-86
2022/11/15 03:50:06;;;;;;;32.75;14.93;;;7.80;99.90;;;;;;4979119;28;20038;-86
2022/11/15 03:52:34;;;;;;;34.15;13.90;;;7.80;99.90;;;;;;4959217;28;20049;-86
2022/11/15 03:55:03;;;;;;;29.77;13.20;;;7.80;99.90;;;;;;4970291;28;20412;-86
2022/11/15 03:57:29;;;;;;;31.30;14.63;;;7.80;99.90;;;;;;4978694;28;20058;-86
2022/11/15 03:59:54;;;;;;;34.23;15.07;;;8.30;99.90;;;;;;4969336;28;20053;-87
2022/11/15 04:02:20;;;;;;;30.70;12.97;;;8.80;99.90;;;;;;4973839;28;20281;-86
2022/11/15 04:04:46;;;;;;;34.37;14.03;;;8.00;99.90;;;;;;4973727;28;20109;-87
2022/11/15 04:07:12;;;;;;;29.17;13.37;;;7.80;99.90;;;;;;4957429;28;20784;-87
2022/11/15 04:10:01;;;;;;;33.38;12.52;;;7.90;99.90;;;;;;4966382;28;20038;-87
2022/11/15 04:12:30;;;;;;;36.20;13.50;;;8.00;99.90;;;;;;4963209;28;20129;-86
2022/11/15 04:15:08;;;;;;;31.75;13.57;;;7.90;99.90;;;;;;4968755;28;20045;-87
2022/11/15 04:17:41;;;;;;;33.22;14.30;;;8.00;99.90;;;;;;4968646;28;20057;-86
2022/11/15 04:25:42;;;;;;;39.17;14.65;;;8.70;99.90;;;;;;4980918;28;20790;-87
2022/11/15 04:28:08;;;;;;;;;;;8.30;99.90;;;;;;4967319;28;20041;-87
2022/11/15 04:30:33;;;;;;;36.05;15.77;;;8.00;99.90;;;;;;4969613;28;19917;-87
2022/11/15 04:32:59;;;;;;;36.28;14.50;;;8.80;99.90;;;;;;4983085;28;20569;-87
2022/11/15 04:35:25;;;;;;;35.37;15.40;;;8.00;99.90;;;;;;4940848;28;20034;-87
2022/11/15 04:37:51;;;;;;;36.78;15.48;;;8.00;99.90;;;;;;4974650;28;20074;-87
2022/11/15 04:40:17;;;;;;;40.72;15.02;;;7.90;99.90;;;;;;4967051;28;20065;-87
2022/11/15 04:42:42;;;;;;;39.53;16.40;;;8.00;99.90;;;;;;4973971;28;20092;-87
2022/11/15 04:45:09;;;;;;;45.97;17.87;;;8.00;99.90;;;;;;4962067;28;20039;-87
2022/11/15 04:47:35;;;;;;;;;;;8.00;99.90;;;;;;4945296;28;20096;-87
2022/11/15 04:50:00;;;;;;;42.90;16.80;;;8.00;99.90;;;;;;4973826;28;19917;-87
2022/11/15 04:52:26;;;;;;;40.23;16.37;;;8.30;99.90;;;;;;4962077;28;20050;-87
2022/11/15 04:54:52;;;;;;;39.50;15.35;;;8.00;99.90;;;;;;4971180;28;20069;-87
2022/11/15 04:57:18;;;;;;;45.00;17.08;;;8.00;99.90;;;;;;4973179;28;20165;-87
2022/11/15 04:59:43;;;;;;;44.22;17.00;;;8.00;99.90;;;;;;4962055;28;20034;-86
2022/11/15 05:02:09;;;;;;;45.83;17.40;;;8.00;99.90;;;;;;4954415;28;20070;-87
2022/11/15 05:04:35;;;;;;;47.20;18.10;;;8.10;99.90;;;;;;4957047;28;20418;-87
2022/11/15 05:07:01;;;;;;;51.90;19.00;;;8.20;99.90;;;;;;4966131;28;20266;-87
2022/11/15 05:09:27;;;;;;;50.65;18.77;;;8.10;99.90;;;;;;4952043;28;20049;-87
2022/11/15 05:11:53;;;;;;;52.95;17.98;;;8.10;99.90;;;;;;4945719;28;20113;-88
2022/11/15 05:14:19;;;;;;;50.50;19.25;;;8.10;99.90;;;;;;4961408;28;20038;-84
2022/11/15 05:16:44;;;;;;;46.90;18.60;;;8.10;99.90;;;;;;4966437;28;20042;-87
2022/11/15 05:19:10;;;;;;;49.17;17.97;;;8.20;99.90;;;;;;4961576;28;20360;-87
2022/11/15 05:21:36;;;;;;;54.38;18.92;;;8.20;99.90;;;;;;4984793;28;20122;-87
2022/11/15 05:24:03;;;;;;;54.00;20.33;;;8.20;99.90;;;;;;4984291;28;20082;-87
2022/11/15 05:26:29;;;;;;;56.05;20.15;;;8.20;99.90;;;;;;4970285;28;20045;-84
2022/11/15 05:28:56;;;;;;;51.57;18.90;;;8.30;99.90;;;;;;4988895;28;20406;-85
2022/11/15 05:31:22;;;;;;;58.47;21.13;;;8.60;99.90;;;;;;4981275;28;20429;-83
2022/11/15 05:33:49;;;;;;;61.97;21.25;;;8.20;99.90;;;;;;4972641;28;20510;-82
2022/11/15 05:36:37;;;;;;;70.07;22.33;;;8.30;99.90;;;;;;4992661;28;20414;-83
2022/11/15 05:39:05;;;;;;;68.75;21.90;;;8.30;99.90;;;;;;4985646;28;20086;-83
2022/11/15 05:41:40;;;;;;;69.15;22.85;;;8.30;99.90;;;;;;4985921;28;20065;-83
2022/11/15 05:44:09;;;;;;;73.18;24.30;;;8.30;99.90;;;;;;4981055;28;20046;-83
2022/11/15 05:46:36;;;;;;;79.07;24.83;;;8.90;99.90;;;;;;4981564;28;20053;-83
2022/11/15 05:49:04;;;;;;;71.93;23.20;;;8.40;99.90;;;;;;4972499;28;20078;-83
2022/11/15 05:51:30;;;;;;;65.95;22.02;;;8.40;99.90;;;;;;4960963;28;20154;-84
2022/11/15 05:53:57;;;;;;;67.25;22.73;;;8.40;99.90;;;;;;4985017;28;20054;-83
2022/11/15 05:56:24;;;;;;;79.13;24.80;;;8.40;99.90;;;;;;4941911;28;20049;-80
2022/11/15 05:58:54;;;;;;;74.88;23.65;;;8.40;99.90;;;;;;4987859;28;20046;-80
2022/11/15 06:01:19;;;;;;;84.57;26.08;;;8.50;99.90;;;;;;4969861;28;20034;-80
2022/11/15 06:03:45;;;;;;;83.87;25.10;;;8.60;99.90;;;;;;4964773;28;20044;-81
2022/11/15 06:06:11;;;;;;;81.80;25.13;;;8.60;99.90;;;;;;4976694;28;20273;-80
2022/11/15 06:08:36;;;;;;;78.73;26.43;;;8.60;99.90;;;;;;4983165;28;20035;-80
2022/11/15 06:11:06;;;;;;;91.00;26.47;;;8.60;99.90;;;;;;4960727;28;20045;-80
2022/11/15 06:13:33;;;;;;;63.83;22.58;;;8.70;99.90;;;;;;4967330;28;20042;-80
2022/11/15 06:15:59;;;;;;;81.72;27.52;;;8.80;99.90;;;;;;4993026;28;20376;-80
2022/11/15 06:18:25;;;;;;;72.75;27.45;;;8.80;99.90;;;;;;4968752;28;20038;-80
2022/11/15 06:20:51;;;;;;;78.28;24.98;;;8.80;99.90;;;;;;4985425;28;20038;-80
2022/11/15 06:23:17;;;;;;;80.97;26.40;;;9.10;99.90;;;;;;4968815;28;20121;-80
2022/11/15 06:25:43;;;;;;;84.38;27.25;;;8.90;99.90;;;;;;4969021;28;20031;-80
2022/11/15 06:28:08;;;;;;;78.93;26.75;;;8.90;99.90;;;;;;4985270;28;20046;-80
2022/11/15 06:30:34;;;;;;;66.87;23.83;;;8.90;99.90;;;;;;4984802;28;20042;-80
2022/11/15 06:33:04;;;;;;;80.33;25.83;;;9.00;99.90;;;;;;4960081;28;20570;-80
2022/11/15 06:35:33;;;;;;;67.75;23.88;;;9.10;99.90;;;;;;4982773;28;20050;-80
2022/11/15 06:38:08;;;;;;;74.90;27.15;;;9.10;99.90;;;;;;4971750;28;20027;-80
2022/11/15 06:40:36;;;;;;;82.43;27.60;;;9.60;99.90;;;;;;4985139;28;20047;-80
2022/11/15 06:43:03;;;;;;;79.05;25.48;;;9.20;99.90;;;;;;4985173;28;20042;-80
2022/11/15 06:45:28;;;;;;;78.45;27.35;;;9.40;99.90;;;;;;4968335;28;20042;-80
2022/11/15 06:47:54;;;;;;;79.60;28.77;;;9.30;99.90;;;;;;4982584;28;20056;-80
2022/11/15 06:50:20;;;;;;;79.27;26.40;;;9.30;99.90;;;;;;4965924;28;20839;-80
2022/11/15 06:52:46;;;;;;;81.18;25.98;;;9.30;99.90;;;;;;4982797;28;20045;-80
2022/11/15 06:55:11;;;;;;;78.20;27.73;;;9.30;99.90;;;;;;4982294;28;20121;-80
2022/11/15 06:57:37;;;;;;;67.50;24.40;;;9.40;99.90;;;;;;4982047;28;20327;-80
2022/11/15 07:00:06;;;;;;;73.20;25.20;;;9.40;99.90;;;;;;4982295;28;20403;-80
2022/11/15 07:02:32;;;;;;;67.13;24.13;;;9.50;99.90;;;;;;4965611;28;20054;-80
2022/11/15 07:04:57;;;;;;;66.27;25.03;;;9.50;99.90;;;;;;4975536;28;20137;-80
2022/11/15 07:07:23;;;;;;;63.80;23.93;;;9.50;99.90;;;;;;4984351;28;20120;-80
2022/11/15 07:09:49;;;;;;;85.23;28.10;;;9.50;99.90;;;;;;4970557;28;20034;-80
2022/11/15 07:12:14;;;;;;;68.90;23.40;;;9.60;99.90;;;;;;4959071;28;20845;-80
2022/11/15 07:14:40;;;;;;;64.10;22.23;;;9.60;99.90;;;;;;4967859;28;20042;-80
2022/11/15 07:17:06;;;;;;;60.13;22.43;;;9.70;99.90;;;;;;4982105;28;20188;-80
2022/11/15 07:19:32;;;;;;;65.38;23.73;;;9.70;99.90;;;;;;4982047;28;20669;-80
2022/11/15 07:21:57;;;;;;;42.00;16.23;;;9.70;99.90;;;;;;4984412;28;20038;-80
2022/11/15 07:24:23;;;;;;;65.70;22.80;;;9.70;99.90;;;;;;4981079;28;20561;-80
2022/11/15 07:26:49;;;;;;;68.77;24.63;;;9.80;99.90;;;;;;4965535;28;20423;-80
2022/11/15 07:29:14;;;;;;;68.83;23.70;;;9.70;99.90;;;;;;4967736;28;20274;-80
2022/11/15 07:31:40;;;;;;;78.77;26.20;;;9.80;99.90;;;;;;4967840;28;20042;-80
2022/11/15 07:34:05;;;;;;;76.83;25.50;;;9.80;99.90;;;;;;4975013;28;20451;-80
2022/11/15 07:36:31;;;;;;;60.30;20.90;;;9.80;99.90;;;;;;4975015;28;20325;-81
2022/11/15 07:38:57;;;;;;;57.22;22.48;;;9.90;99.90;;;;;;4968140;28;20120;-81
2022/11/15 07:41:22;;;;;;;62.17;22.73;;;9.90;99.90;;;;;;4983933;28;20108;-81
2022/11/15 07:43:52;;;;;;;65.28;24.48;;;10.00;99.90;;;;;;4981423;28;20062;-81
2022/11/15 07:46:18;;;;;;;65.32;22.65;;;9.90;99.90;;;;;;4983836;28;20115;-81
2022/11/15 07:48:43;;;;;;;56.03;21.03;;;9.90;99.90;;;;;;4969966;28;20185;-81
2022/11/15 07:51:14;;;;;;;67.87;24.77;;;10.00;99.90;;;;;;4983943;28;20285;-81
2022/11/15 07:53:39;;;;;;;65.60;23.33;;;10.00;99.90;;;;;;4980040;28;20293;-81
2022/11/15 07:56:09;;;;;;;52.60;21.90;;;10.10;99.90;;;;;;4981537;28;20038;-81
2022/11/15 07:58:35;;;;;;;58.28;21.50;;;10.10;99.90;;;;;;4963340;28;20789;-81
2022/11/15 08:01:06;;;;;;;66.13;25.42;;;10.10;99.90;;;;;;4983391;28;20034;-81
2022/11/15 08:03:32;;;;;;;53.03;20.48;;;10.10;99.90;;;;;;4964137;28;20055;-81
2022/11/15 08:05:57;;;;;;;59.05;23.98;;;10.10;99.90;;;;;;4985133;28;20042;-81
2022/11/15 08:08:23;;;;;;;46.60;19.25;;;10.20;99.90;;;;;;4982980;28;20506;-81
2022/11/15 08:10:49;;;;;;;55.08;19.63;;;10.20;99.90;;;;;;4979965;28;20064;-80
2022/11/15 08:13:14;;;;;;;55.03;22.30;;;10.30;99.90;;;;;;4982206;28;20061;-81
2022/11/15 08:15:40;;;;;;;43.55;18.83;;;10.30;99.90;;;;;;4972882;28;20049;-81
2022/11/15 08:18:11;;;;;;;50.58;21.23;;;10.30;99.90;;;;;;4989808;28;20483;-81
2022/11/15 08:20:37;;;;;;;52.50;21.85;;;10.30;99.90;;;;;;5004127;28;20038;-80
2022/11/15 08:23:04;;;;;;;52.17;20.38;;;10.40;99.90;;;;;;4983869;28;20038;-80
2022/11/15 08:25:31;;;;;;;51.63;21.13;;;10.40;99.90;;;;;;4990361;28;20039;-80
2022/11/15 08:28:01;;;;;;;50.78;21.50;;;10.40;99.90;;;;;;4983381;28;20117;-80
2022/11/15 08:30:27;;;;;;;41.85;19.52;;;10.50;99.90;;;;;;4967023;28;20047;-80
2022/11/15 08:32:56;;;;;;;44.88;18.90;;;10.50;99.90;;;;;;4982976;28;20084;-80
2022/11/15 08:35:21;;;;;;;41.40;20.73;;;10.50;99.90;;;;;;4964889;28;20074;-81
2022/11/15 08:37:47;;;;;;;43.77;21.20;;;10.60;99.90;;;;;;4983021;28;20084;-81
2022/11/15 08:40:13;;;;;;;29.85;17.05;;;10.60;99.90;;;;;;4964423;28;20297;-81
2022/11/15 08:42:39;;;;;;;40.10;18.83;;;10.60;99.90;;;;;;4983283;28;20490;-80
2022/11/15 08:45:06;;;;;;;36.75;19.35;;;10.70;99.90;;;;;;4973674;28;20121;-80
2022/11/15 08:47:32;;;;;;;36.95;17.98;;;10.70;99.90;;;;;;4966819;28;20054;-80
2022/11/15 08:49:58;;;;;;;42.92;19.90;;;10.70;99.90;;;;;;4981161;28;20480;-81
2022/11/15 08:52:24;;;;;;;39.65;18.40;;;10.70;99.90;;;;;;4964857;28;20041;-80
2022/11/15 08:54:50;;;;;;;38.00;17.75;;;10.70;99.90;;;;;;4973608;28;20112;-81
2022/11/15 08:57:15;;;;;;;33.97;16.80;;;10.80;99.90;;;;;;4966736;28;20077;-81
2022/11/15 08:59:41;;;;;;;32.67;16.67;;;10.90;99.90;;;;;;4982997;28;20364;-81
2022/11/15 09:02:15;;;;;;;34.73;15.73;;;10.90;99.90;;;;;;4980494;28;20054;-81
2022/11/15 09:04:44;;;;;;;32.53;16.00;;;10.90;99.90;;;;;;4981095;28;20077;-81
2022/11/15 09:07:11;;;;;;;31.92;17.83;;;11.10;99.90;;;;;;4983087;28;20375;-81
2022/11/15 09:09:37;;;;;;;34.30;16.40;;;11.10;99.90;;;;;;4982769;28;20043;-81
2022/11/15 09:12:03;;;;;;;33.97;15.20;;;11.10;99.90;;;;;;4990081;28;20201;-81
2022/11/15 09:14:29;;;;;;;32.75;15.93;;;11.20;99.90;;;;;;4964512;28;20045;-81
2022/11/15 09:16:55;;;;;;;33.40;15.05;;;11.20;99.90;;;;;;4980408;28;20121;-81
2022/11/15 09:19:21;;;;;;;27.85;15.32;;;11.40;99.90;;;;;;4989910;28;20085;-81
2022/11/15 09:21:47;;;;;;;25.58;12.73;;;11.50;99.90;;;;;;4961854;28;20043;-81
2022/11/15 09:24:12;;;;;;;25.30;15.13;;;11.60;99.90;;;;;;4961720;28;20130;-81
2022/11/15 09:26:39;;;;;;;26.60;14.65;;;11.60;99.90;;;;;;4969738;28;20034;-81
2022/11/15 09:29:04;;;;;;;;;;;11.50;99.90;;;;;;4993878;28;20549;-80
2022/11/15 09:31:33;;;;;;;27.45;14.25;;;11.50;99.90;;;;;;4977109;28;19917;-81
2022/11/15 09:33:59;;;;;;;20.35;11.50;;;11.40;99.90;;;;;;4983550;28;20513;-81
2022/11/15 09:36:24;;;;;;;24.10;12.80;;;11.50;99.90;;;;;;4986131;28;20050;-81
2022/11/15 09:38:50;;;;;;;24.55;13.15;;;11.50;99.90;;;;;;4967339;28;20038;-81
2022/11/15 09:41:29;;;;;;;22.98;12.50;;;11.50;99.90;;;;;;4969772;28;20112;-80
2022/11/15 09:44:16;;;;;;;25.08;13.60;;;11.50;99.90;;;;;;4987996;28;20076;-81
2022/11/15 09:46:51;;;;;;;22.58;12.82;;;11.50;99.90;;;;;;4975528;28;20081;-81
2022/11/15 09:49:17;;;;;;;26.10;14.35;;;11.50;99.90;;;;;;4984083;28;20046;-81
2022/11/15 09:51:47;;;;;;;;;;;11.60;99.90;;;;;;4993332;28;20038;-81
2022/11/15 09:54:37;;;;;;;21.67;12.93;;;11.60;99.90;;;;;;5009548;28;20448;-80
2022/11/15 09:57:15;;;;;;;23.30;13.43;;;11.60;99.90;;;;;;4982921;28;20106;-81
2022/11/15 10:00:25;;;;;;;22.55;13.05;;;11.60;99.90;;;;;;4985087;28;20517;-81
2022/11/15 10:03:13;;;;;;;22.27;13.60;;;11.60;99.90;;;;;;4955481;28;20133;-80
2022/11/15 10:05:51;;;;;;;25.65;12.73;;;11.60;99.90;;;;;;4983329;28;20038;-81
2022/11/15 10:08:35;;;;;;;26.75;13.02;;;11.60;99.90;;;;;;4983405;28;20038;-81
2022/11/15 10:11:08;;;;;;;22.63;13.57;;;11.70;99.90;;;;;;4983955;28;20078;-81
2022/11/15 10:13:36;;;;;;;21.77;13.15;;;11.60;99.90;;;;;;4980972;28;20038;-80
2022/11/15 10:16:24;;;;;;;20.33;11.90;;;11.70;99.90;;;;;;4985209;28;20042;-81
2022/11/15 10:19:20;;;;;;;21.20;12.90;;;11.70;99.90;;;;;;4966934;28;20376;-80
2022/11/15 10:22:11;;;;;;;24.27;13.15;;;11.70;99.90;;;;;;4985433;28;20661;-80
2022/11/15 10:24:42;;;;;;;20.55;12.25;;;11.70;99.90;;;;;;4984797;28;20069;-80
2022/11/15 10:27:12;;;;;;;23.73;13.25;;;11.70;99.90;;;;;;4987923;28;20050;-79
2022/11/15 10:29:44;;;;;;;24.52;12.00;;;11.70;99.90;;;;;;4985622;28;20049;-81
2022/11/15 10:32:12;;;;;;;23.52;12.55;;;11.70;99.90;;;;;;4987832;28;20050;-81
2022/11/15 10:34:38;;;;;;;21.50;12.50;;;11.70;99.90;;;;;;4966496;28;20054;-81
2022/11/15 10:37:03;;;;;;;24.33;11.63;;;11.70;99.90;;;;;;4974973;28;20061;-81
2022/11/15 10:39:29;;;;;;;24.02;12.25;;;11.70;99.90;;;;;;4985002;28;20041;-81
2022/11/15 10:41:56;;;;;;;18.60;11.25;;;11.70;99.90;;;;;;4966485;28;20049;-81
2022/11/15 10:44:24;;;;;;;19.15;12.07;;;11.70;99.90;;;;;;4966459;28;20074;-81
2022/11/15 10:46:55;;;;;;;20.80;12.63;;;11.80;99.90;;;;;;4984594;28;20035;-81
2022/11/15 10:49:29;;;;;;;20.77;11.05;;;11.80;99.90;;;;;;4980461;28;20122;-81
2022/11/15 10:51:57;;;;;;;22.23;12.02;;;11.80;99.90;;;;;;4991821;28;20034;-81
2022/11/15 10:54:29;;;;;;;21.08;11.73;;;11.80;99.90;;;;;;4984447;28;20038;-81
2022/11/15 10:56:58;;;;;;;21.63;11.40;;;11.90;99.90;;;;;;4982327;28;20034;-81
2022/11/15 10:59:28;;;;;;;20.27;11.13;;;11.80;99.90;;;;;;4987308;28;20857;-81
2022/11/15 11:01:54;;;;;;;25.17;11.20;;;11.90;99.90;;;;;;4984066;28;20088;-81
2022/11/15 11:04:20;;;;;;;20.73;11.77;;;11.90;99.90;;;;;;4991523;28;20491;-82
2022/11/15 11:06:46;;;;;;;20.25;11.90;;;11.90;99.90;;;;;;4984393;28;20031;-82
2022/11/15 11:09:23;;;;;;;21.53;12.00;;;11.90;99.90;;;;;;4984351;28;20043;-81
2022/11/15 11:11:51;;;;;;;21.77;11.98;;;11.80;99.90;;;;;;4984100;28;20282;-82
2022/11/15 11:14:27;;;;;;;22.70;12.63;;;11.90;99.90;;;;;;4968212;28;20042;-82
2022/11/15 11:17:23;;;;;;;19.10;10.75;;;11.90;99.90;;;;;;4982081;28;20552;-82
2022/11/15 11:20:24;;;;;;;21.58;11.77;;;12.00;99.90;;;;;;4981608;28;20113;-82
2022/11/15 11:23:36;;;;;;;19.95;11.35;;;12.20;99.90;;;;;;4968791;28;20104;-82
2022/11/15 11:26:30;;;;;;;18.50;11.27;;;12.30;99.90;;;;;;4984382;28;20054;-82
2022/11/15 11:29:04;;;;;;;20.90;11.93;;;12.40;99.90;;;;;;4969025;28;20038;-81
2022/11/15 11:31:47;;;;;;;18.27;11.93;;;12.50;99.90;;;;;;4968174;28;20082;-81
2022/11/15 11:34:27;;;;;;;19.95;11.73;;;12.50;99.90;;;;;;4982067;28;20058;-81
2022/11/15 11:37:20;;;;;;;19.27;11.05;;;12.50;99.90;;;;;;4979874;28;20038;-82
2022/11/15 11:40:00;;;;;;;16.77;10.43;;;12.60;99.90;;;;;;4968138;28;20069;-82
2022/11/15 11:42:47;;;;;;;16.52;10.50;;;12.70;99.90;;;;;;4968066;28;20030;-81
2022/11/15 11:45:29;;;;;;;18.13;9.93;;;13.00;99.90;;;;;;4982666;28;20105;-82
2022/11/15 11:48:11;;;;;;;16.50;9.73;;;13.30;99.90;;;;;;4974045;28;20442;-82
2022/11/15 11:50:37;;;;;;;16.15;10.10;;;13.40;99.90;;;;;;4965690;28;20038;-82
2022/11/15 11:53:12;;;;;;;13.23;9.88;;;13.70;99.90;;;;;;4962258;28;20038;-82
2022/11/15 11:55:46;;;;;;;10.43;6.72;;;13.90;99.90;;;;;;4970528;28;20545;-82
2022/11/15 11:58:33;;;;;;;10.93;6.72;;;14.20;99.90;;;;;;4990793;28;20046;-82
2022/11/15 12:01:08;;;;;;;;;;;14.40;99.90;;;;;;4990861;28;20043;-82
2022/11/15 12:04:01;;;;;;;8.00;4.18;;;14.70;99.90;;;;;;4985469;28;19972;-82
2022/11/15 12:07:10;;;;;;;7.00;4.30;;;14.70;99.90;;;;;;4932156;28;20046;-82
2022/11/15 12:09:44;;;;;;;11.35;4.40;;;14.50;99.90;;;;;;4966303;28;20758;-82
2022/11/15 12:12:18;;;;;;;5.13;3.08;;;14.50;99.90;;;;;;4990383;28;20069;-82
2022/11/15 12:15:09;;;;;;;6.85;3.45;;;14.40;99.90;;;;;;4979957;28;20038;-82
2022/11/15 12:17:35;;;;;;;6.28;3.22;;;14.10;99.90;;;;;;4987887;28;20494;-82
2022/11/15 12:20:23;;;;;;;6.82;2.80;;;14.10;99.90;;;;;;4969530;28;20056;-82
2022/11/15 12:23:13;;;;;;;5.60;2.85;;;14.30;99.90;;;;;;4978835;28;20122;-82
2022/11/15 12:26:00;;;;;;;4.15;2.33;;;14.60;99.90;;;;;;4957256;28;20050;-82
2022/11/15 12:28:44;;;;;;;6.82;2.25;;;14.50;99.90;;;;;;4983385;28;20043;-82
2022/11/15 12:31:17;;;;;;;4.70;2.65;;;14.20;99.90;;;;;;4980795;28;20402;-82
2022/11/15 12:33:42;;;;;;;5.25;2.30;;;14.10;99.90;;;;;;4981139;28;20070;-82
2022/11/15 12:36:31;;;;;;;5.15;2.85;;;14.00;99.90;;;;;;4980689;28;20062;-82
2022/11/15 12:39:05;;;;;;;5.93;2.88;;;14.00;99.90;;;;;;4981843;28;20074;-82
2022/11/15 12:41:33;;;;;;;5.88;2.47;;;14.00;99.90;;;;;;4983970;28;20030;-82
2022/11/15 12:44:00;;;;;;;4.00;2.10;;;14.00;99.90;;;;;;4982834;28;20042;-82
2022/11/15 12:46:29;;;;;;;3.70;1.80;;;13.80;99.90;;;;;;4967451;28;20031;-82
2022/11/15 12:49:00;;;;;;;6.53;1.58;;;13.80;99.90;;;;;;4969366;28;20035;-80
2022/11/15 12:51:48;;;;;;;5.65;1.60;;;13.80;99.90;;;;;;4983385;28;20068;-81
2022/11/15 12:54:22;;;;;;;6.88;1.77;;;13.70;99.90;;;;;;4988669;28;20049;-82
2022/11/15 12:57:03;;;;;;;4.97;2.13;;;13.70;99.90;;;;;;4982024;28;20039;-82
2022/11/15 12:59:51;;;;;;;5.95;2.25;;;13.80;99.90;;;;;;4980519;28;20042;-81
2022/11/15 13:02:38;;;;;;;6.20;1.85;;;13.90;99.90;;;;;;4991413;28;20064;-82
2022/11/15 13:05:13;;;;;;;;;;;14.00;99.90;;;;;;4968821;28;20534;-82